TAF KHIO
KHIO 081736Z 0818/0918 29005KT P6SM -SHRA SCT015 BKN035 OVC050 FM090600 26003KT 4SM BR SCT003 BKN015 FM091300 20004KT 6SM BR SCT003 BKN010=
METAR KHIO
WC KHIO
WS KHIO
WV KHIO